sensor_id;sensor_type;location;lat;lon;timestamp;temperature;humidity
52731;DHT22;38624;53.242;6.974;2023-07-31T00:00:11;16.20;99.90
52731;DHT22;38624;53.242;6.974;2023-07-31T00:02:38;16.20;99.90
52731;DHT22;38624;53.242;6.974;2023-07-31T00:05:04;16.30;99.90
52731;DHT22;38624;53.242;6.974;2023-07-31T00:07:30;16.20;99.90
52731;DHT22;38624;53.242;6.974;2023-07-31T00:09:56;16.20;99.90
52731;DHT22;38624;53.242;6.974;2023-07-31T00:12:24;16.20;99.90
52731;DHT22;38624;53.242;6.974;2023-07-31T00:14:50;16.30;99.90
52731;DHT22;38624;53.242;6.974;2023-07-31T00:17:17;16.30;99.90
52731;DHT22;38624;53.242;6.974;2023-07-31T00:19:43;16.40;99.90
52731;DHT22;38624;53.242;6.974;2023-07-31T00:22:08;16.30;99.90
52731;DHT22;38624;53.242;6.974;2023-07-31T00:24:34;16.30;99.90
52731;DHT22;38624;53.242;6.974;2023-07-31T00:27:00;16.20;99.90
52731;DHT22;38624;53.242;6.974;2023-07-31T00:29:25;16.20;99.90
52731;DHT22;38624;53.242;6.974;2023-07-31T00:31:51;16.20;99.90
52731;DHT22;38624;53.242;6.974;2023-07-31T00:34:17;16.20;99.90
52731;DHT22;38624;53.242;6.974;2023-07-31T00:36:42;16.20;99.90
52731;DHT22;38624;53.242;6.974;2023-07-31T00:39:08;16.30;99.90
52731;DHT22;38624;53.242;6.974;2023-07-31T00:41:34;16.20;99.90
52731;DHT22;38624;53.242;6.974;2023-07-31T00:43:59;16.20;99.90
52731;DHT22;38624;53.242;6.974;2023-07-31T00:46:25;16.10;99.90
52731;DHT22;38624;53.242;6.974;2023-07-31T00:48:51;16.10;99.90
52731;DHT22;38624;53.242;6.974;2023-07-31T00:51:16;16.10;99.90
52731;DHT22;38624;53.242;6.974;2023-07-31T00:53:43;16.10;99.90
52731;DHT22;38624;53.242;6.974;2023-07-31T00:56:10;16.10;99.90
52731;DHT22;38624;53.242;6.974;2023-07-31T00:58:36;16.10;99.90
52731;DHT22;38624;53.242;6.974;2023-07-31T01:01:02;16.00;99.90
52731;DHT22;38624;53.242;6.974;2023-07-31T01:03:28;15.90;99.90
52731;DHT22;38624;53.242;6.974;2023-07-31T01:08:29;15.90;99.90
52731;DHT22;38624;53.242;6.974;2023-07-31T01:11:04;15.90;99.90
52731;DHT22;38624;53.242;6.974;2023-07-31T01:13:31;15.90;99.90
52731;DHT22;38624;53.242;6.974;2023-07-31T01:15:56;15.90;99.90
52731;DHT22;38624;53.242;6.974;2023-07-31T01:18:22;15.80;99.90
52731;DHT22;38624;53.242;6.974;2023-07-31T01:20:54;15.80;99.90
52731;DHT22;38624;53.242;6.974;2023-07-31T01:26:43;15.70;99.90
52731;DHT22;38624;53.242;6.974;2023-07-31T01:29:43;15.70;99.90
52731;DHT22;38624;53.242;6.974;2023-07-31T01:32:13;15.80;99.90
52731;DHT22;38624;53.242;6.974;2023-07-31T01:34:39;15.70;99.90
52731;DHT22;38624;53.242;6.974;2023-07-31T01:37:06;15.70;99.90
52731;DHT22;38624;53.242;6.974;2023-07-31T01:39:32;15.70;99.90
52731;DHT22;38624;53.242;6.974;2023-07-31T01:41:58;15.60;99.90
52731;DHT22;38624;53.242;6.974;2023-07-31T01:44:23;15.70;99.90
52731;DHT22;38624;53.242;6.974;2023-07-31T01:46:49;15.70;99.90
52731;DHT22;38624;53.242;6.974;2023-07-31T01:49:15;15.60;99.90
52731;DHT22;38624;53.242;6.974;2023-07-31T01:51:40;15.60;99.90
52731;DHT22;38624;53.242;6.974;2023-07-31T01:54:06;15.50;99.90
52731;DHT22;38624;53.242;6.974;2023-07-31T01:56:32;15.50;99.90
52731;DHT22;38624;53.242;6.974;2023-07-31T01:58:57;15.60;99.90
52731;DHT22;38624;53.242;6.974;2023-07-31T02:01:23;15.60;99.90
52731;DHT22;38624;53.242;6.974;2023-07-31T02:03:49;15.70;99.90
52731;DHT22;38624;53.242;6.974;2023-07-31T02:06:14;15.60;99.90
52731;DHT22;38624;53.242;6.974;2023-07-31T02:08:40;15.60;99.90
52731;DHT22;38624;53.242;6.974;2023-07-31T02:11:06;15.60;99.90
52731;DHT22;38624;53.242;6.974;2023-07-31T02:13:31;15.50;99.90
52731;DHT22;38624;53.242;6.974;2023-07-31T02:15:57;15.50;99.90
52731;DHT22;38624;53.242;6.974;2023-07-31T02:18:23;15.60;99.90
52731;DHT22;38624;53.242;6.974;2023-07-31T02:20:50;15.60;99.90
52731;DHT22;38624;53.242;6.974;2023-07-31T02:23:17;15.60;99.90
52731;DHT22;38624;53.242;6.974;2023-07-31T02:25:43;15.60;99.90
52731;DHT22;38624;53.242;6.974;2023-07-31T02:28:09;15.50;99.90
52731;DHT22;38624;53.242;6.974;2023-07-31T02:30:34;15.50;99.90
52731;DHT22;38624;53.242;6.974;2023-07-31T02:33:00;15.50;99.90
52731;DHT22;38624;53.242;6.974;2023-07-31T02:35:26;15.40;99.90
52731;DHT22;38624;53.242;6.974;2023-07-31T02:37:51;15.40;99.90
52731;DHT22;38624;53.242;6.974;2023-07-31T02:40:17;15.40;99.90
52731;DHT22;38624;53.242;6.974;2023-07-31T02:42:43;15.40;99.90
52731;DHT22;38624;53.242;6.974;2023-07-31T02:45:09;15.40;99.90
52731;DHT22;38624;53.242;6.974;2023-07-31T02:47:35;15.30;99.90
52731;DHT22;38624;53.242;6.974;2023-07-31T02:50:02;15.40;99.90
52731;DHT22;38624;53.242;6.974;2023-07-31T02:52:27;15.40;99.90
52731;DHT22;38624;53.242;6.974;2023-07-31T02:54:53;15.40;99.90
52731;DHT22;38624;53.242;6.974;2023-07-31T02:57:19;15.40;99.90
52731;DHT22;38624;53.242;6.974;2023-07-31T02:59:45;15.30;99.90
52731;DHT22;38624;53.242;6.974;2023-07-31T03:02:10;15.30;99.90
52731;DHT22;38624;53.242;6.974;2023-07-31T03:04:37;15.40;99.90
52731;DHT22;38624;53.242;6.974;2023-07-31T03:07:03;15.40;99.90
52731;DHT22;38624;53.242;6.974;2023-07-31T03:09:29;15.30;99.90
52731;DHT22;38624;53.242;6.974;2023-07-31T03:11:54;15.30;99.90
52731;DHT22;38624;53.242;6.974;2023-07-31T03:14:20;15.30;99.90
52731;DHT22;38624;53.242;6.974;2023-07-31T03:16:46;15.20;99.90
52731;DHT22;38624;53.242;6.974;2023-07-31T03:19:11;15.30;99.90
52731;DHT22;38624;53.242;6.974;2023-07-31T03:21:37;15.30;99.90
52731;DHT22;38624;53.242;6.974;2023-07-31T03:24:03;15.20;99.90
52731;DHT22;38624;53.242;6.974;2023-07-31T03:26:31;15.20;99.90
52731;DHT22;38624;53.242;6.974;2023-07-31T03:28:57;15.20;99.90
52731;DHT22;38624;53.242;6.974;2023-07-31T03:31:22;15.10;99.90
52731;DHT22;38624;53.242;6.974;2023-07-31T03:33:48;15.10;99.90
52731;DHT22;38624;53.242;6.974;2023-07-31T03:36:14;15.10;99.90
52731;DHT22;38624;53.242;6.974;2023-07-31T03:38:39;15.00;99.90
52731;DHT22;38624;53.242;6.974;2023-07-31T03:41:05;15.10;99.90
52731;DHT22;38624;53.242;6.974;2023-07-31T03:43:32;15.10;99.90
52731;DHT22;38624;53.242;6.974;2023-07-31T03:46:00;15.10;99.90
52731;DHT22;38624;53.242;6.974;2023-07-31T03:48:26;15.00;99.90
52731;DHT22;38624;53.242;6.974;2023-07-31T03:50:52;15.00;99.90
52731;DHT22;38624;53.242;6.974;2023-07-31T03:53:17;15.00;99.90
52731;DHT22;38624;53.242;6.974;2023-07-31T03:55:43;15.00;99.90
52731;DHT22;38624;53.242;6.974;2023-07-31T03:58:09;14.90;99.90
52731;DHT22;38624;53.242;6.974;2023-07-31T04:00:34;14.90;99.90
52731;DHT22;38624;53.242;6.974;2023-07-31T04:03:00;14.90;99.90
52731;DHT22;38624;53.242;6.974;2023-07-31T04:05:26;15.00;99.90
52731;DHT22;38624;53.242;6.974;2023-07-31T04:07:51;15.00;99.90
52731;DHT22;38624;53.242;6.974;2023-07-31T04:10:17;15.00;99.90
52731;DHT22;38624;53.242;6.974;2023-07-31T04:12:43;15.00;99.90
52731;DHT22;38624;53.242;6.974;2023-07-31T04:15:09;15.00;99.90
52731;DHT22;38624;53.242;6.974;2023-07-31T04:17:34;15.10;99.90
52731;DHT22;38624;53.242;6.974;2023-07-31T04:20:00;15.00;99.90
52731;DHT22;38624;53.242;6.974;2023-07-31T04:22:26;15.00;99.90
52731;DHT22;38624;53.242;6.974;2023-07-31T04:24:51;15.00;99.90
52731;DHT22;38624;53.242;6.974;2023-07-31T04:27:17;15.00;99.90
52731;DHT22;38624;53.242;6.974;2023-07-31T04:29:43;15.00;99.90
52731;DHT22;38624;53.242;6.974;2023-07-31T04:32:11;15.10;99.90
52731;DHT22;38624;53.242;6.974;2023-07-31T04:34:37;15.10;99.90
52731;DHT22;38624;53.242;6.974;2023-07-31T04:37:03;15.20;99.90
52731;DHT22;38624;53.242;6.974;2023-07-31T04:39:28;15.10;99.90
52731;DHT22;38624;53.242;6.974;2023-07-31T04:41:54;15.20;99.90
52731;DHT22;38624;53.242;6.974;2023-07-31T04:44:20;15.20;99.90
52731;DHT22;38624;53.242;6.974;2023-07-31T04:46:45;15.20;99.90
52731;DHT22;38624;53.242;6.974;2023-07-31T04:49:11;15.20;99.90
52731;DHT22;38624;53.242;6.974;2023-07-31T04:51:37;15.20;99.90
52731;DHT22;38624;53.242;6.974;2023-07-31T04:54:03;15.20;99.90
52731;DHT22;38624;53.242;6.974;2023-07-31T04:56:28;15.20;99.90
52731;DHT22;38624;53.242;6.974;2023-07-31T04:58:54;15.20;99.90
52731;DHT22;38624;53.242;6.974;2023-07-31T05:01:20;15.20;99.90
52731;DHT22;38624;53.242;6.974;2023-07-31T05:03:46;15.20;99.90
52731;DHT22;38624;53.242;6.974;2023-07-31T05:06:11;15.20;99.90
52731;DHT22;38624;53.242;6.974;2023-07-31T05:08:38;15.20;99.90
52731;DHT22;38624;53.242;6.974;2023-07-31T05:11:04;15.20;99.90
52731;DHT22;38624;53.242;6.974;2023-07-31T05:13:30;15.30;99.90
52731;DHT22;38624;53.242;6.974;2023-07-31T05:15:56;15.20;99.90
52731;DHT22;38624;53.242;6.974;2023-07-31T05:18:21;15.20;99.90
52731;DHT22;38624;53.242;6.974;2023-07-31T05:20:47;15.30;99.90
52731;DHT22;38624;53.242;6.974;2023-07-31T05:23:13;15.30;99.90
52731;DHT22;38624;53.242;6.974;2023-07-31T05:25:38;15.30;99.90
52731;DHT22;38624;53.242;6.974;2023-07-31T05:28:04;15.30;99.90
52731;DHT22;38624;53.242;6.974;2023-07-31T05:30:30;15.40;99.90
52731;DHT22;38624;53.242;6.974;2023-07-31T05:32:56;15.40;99.90
52731;DHT22;38624;53.242;6.974;2023-07-31T05:35:22;15.40;99.90
52731;DHT22;38624;53.242;6.974;2023-07-31T05:37:48;15.40;99.90
52731;DHT22;38624;53.242;6.974;2023-07-31T05:40:14;15.40;99.90
52731;DHT22;38624;53.242;6.974;2023-07-31T05:42:40;15.40;99.90
52731;DHT22;38624;53.242;6.974;2023-07-31T05:45:08;15.40;99.90
52731;DHT22;38624;53.242;6.974;2023-07-31T05:47:34;15.50;99.90
52731;DHT22;38624;53.242;6.974;2023-07-31T05:50:00;15.50;99.90
52731;DHT22;38624;53.242;6.974;2023-07-31T05:52:26;15.50;99.90
52731;DHT22;38624;53.242;6.974;2023-07-31T05:54:51;15.50;99.90
52731;DHT22;38624;53.242;6.974;2023-07-31T05:57:17;15.50;99.90
52731;DHT22;38624;53.242;6.974;2023-07-31T05:59:43;15.60;99.90
52731;DHT22;38624;53.242;6.974;2023-07-31T06:02:09;15.60;99.90
52731;DHT22;38624;53.242;6.974;2023-07-31T06:04:34;15.60;99.90
52731;DHT22;38624;53.242;6.974;2023-07-31T06:07:00;15.60;99.90
52731;DHT22;38624;53.242;6.974;2023-07-31T06:09:26;15.60;99.90
52731;DHT22;38624;53.242;6.974;2023-07-31T06:11:52;15.60;99.90
52731;DHT22;38624;53.242;6.974;2023-07-31T06:14:18;15.60;99.90
52731;DHT22;38624;53.242;6.974;2023-07-31T06:16:44;15.60;99.90
52731;DHT22;38624;53.242;6.974;2023-07-31T06:19:10;15.60;99.90
52731;DHT22;38624;53.242;6.974;2023-07-31T06:21:36;15.60;99.90
52731;DHT22;38624;53.242;6.974;2023-07-31T06:24:07;15.60;99.90
52731;DHT22;38624;53.242;6.974;2023-07-31T06:26:33;15.60;99.90
52731;DHT22;38624;53.242;6.974;2023-07-31T06:28:58;15.70;99.90
52731;DHT22;38624;53.242;6.974;2023-07-31T06:31:24;15.80;99.90
52731;DHT22;38624;53.242;6.974;2023-07-31T06:33:51;15.80;99.90
52731;DHT22;38624;53.242;6.974;2023-07-31T06:36:17;15.90;99.90
52731;DHT22;38624;53.242;6.974;2023-07-31T06:38:43;16.00;99.90
52731;DHT22;38624;53.242;6.974;2023-07-31T06:41:09;16.00;99.90
52731;DHT22;38624;53.242;6.974;2023-07-31T06:43:36;16.10;99.90
52731;DHT22;38624;53.242;6.974;2023-07-31T06:46:08;16.10;99.90
52731;DHT22;38624;53.242;6.974;2023-07-31T06:48:34;16.10;99.90
52731;DHT22;38624;53.242;6.974;2023-07-31T06:51:00;16.10;99.90
52731;DHT22;38624;53.242;6.974;2023-07-31T06:53:26;16.20;99.90
52731;DHT22;38624;53.242;6.974;2023-07-31T06:55:52;16.30;99.90
52731;DHT22;38624;53.242;6.974;2023-07-31T06:58:18;16.40;99.90
52731;DHT22;38624;53.242;6.974;2023-07-31T07:00:44;16.50;99.90
52731;DHT22;38624;53.242;6.974;2023-07-31T07:03:09;16.60;99.90
52731;DHT22;38624;53.242;6.974;2023-07-31T07:05:35;16.80;99.90
52731;DHT22;38624;53.242;6.974;2023-07-31T07:08:01;16.90;99.90
52731;DHT22;38624;53.242;6.974;2023-07-31T07:10:26;17.10;99.90
52731;DHT22;38624;53.242;6.974;2023-07-31T07:12:52;17.30;99.90
52731;DHT22;38624;53.242;6.974;2023-07-31T07:15:18;17.50;99.90
52731;DHT22;38624;53.242;6.974;2023-07-31T07:17:44;17.50;99.90
52731;DHT22;38624;53.242;6.974;2023-07-31T07:20:10;17.60;99.90
52731;DHT22;38624;53.242;6.974;2023-07-31T07:22:35;17.80;99.90
52731;DHT22;38624;53.242;6.974;2023-07-31T07:25:02;17.90;99.90
52731;DHT22;38624;53.242;6.974;2023-07-31T07:27:28;18.00;99.90
52731;DHT22;38624;53.242;6.974;2023-07-31T07:29:53;18.00;99.90
52731;DHT22;38624;53.242;6.974;2023-07-31T07:32:20;18.00;99.90
52731;DHT22;38624;53.242;6.974;2023-07-31T07:34:47;18.10;99.90
52731;DHT22;38624;53.242;6.974;2023-07-31T07:37:12;18.10;99.90
52731;DHT22;38624;53.242;6.974;2023-07-31T07:39:38;18.10;99.90
52731;DHT22;38624;53.242;6.974;2023-07-31T07:42:04;18.10;99.90
52731;DHT22;38624;53.242;6.974;2023-07-31T07:44:29;18.10;99.90
52731;DHT22;38624;53.242;6.974;2023-07-31T07:46:55;18.00;99.90
52731;DHT22;38624;53.242;6.974;2023-07-31T07:49:21;18.00;99.90
52731;DHT22;38624;53.242;6.974;2023-07-31T07:51:48;18.00;99.90
52731;DHT22;38624;53.242;6.974;2023-07-31T07:54:14;17.80;99.90
52731;DHT22;38624;53.242;6.974;2023-07-31T07:56:42;17.80;99.90
52731;DHT22;38624;53.242;6.974;2023-07-31T07:59:08;17.80;99.90
52731;DHT22;38624;53.242;6.974;2023-07-31T08:01:34;17.80;99.90
52731;DHT22;38624;53.242;6.974;2023-07-31T08:04:00;17.90;99.90
52731;DHT22;38624;53.242;6.974;2023-07-31T08:06:25;18.00;99.90
52731;DHT22;38624;53.242;6.974;2023-07-31T08:08:51;18.20;99.90
52731;DHT22;38624;53.242;6.974;2023-07-31T08:11:16;18.20;99.90
52731;DHT22;38624;53.242;6.974;2023-07-31T08:13:42;18.40;99.90
52731;DHT22;38624;53.242;6.974;2023-07-31T08:16:08;18.40;99.90
52731;DHT22;38624;53.242;6.974;2023-07-31T08:18:34;18.50;99.90
52731;DHT22;38624;53.242;6.974;2023-07-31T08:21:04;18.60;99.90
52731;DHT22;38624;53.242;6.974;2023-07-31T08:23:30;18.70;99.90
52731;DHT22;38624;53.242;6.974;2023-07-31T08:25:56;18.70;99.90
52731;DHT22;38624;53.242;6.974;2023-07-31T08:28:21;18.80;99.90
52731;DHT22;38624;53.242;6.974;2023-07-31T08:30:47;18.80;99.90
52731;DHT22;38624;53.242;6.974;2023-07-31T08:33:13;18.80;99.90
52731;DHT22;38624;53.242;6.974;2023-07-31T08:35:38;18.70;99.90
52731;DHT22;38624;53.242;6.974;2023-07-31T08:38:04;18.80;99.90
52731;DHT22;38624;53.242;6.974;2023-07-31T08:40:30;18.70;99.90
52731;DHT22;38624;53.242;6.974;2023-07-31T08:42:56;18.80;99.90
52731;DHT22;38624;53.242;6.974;2023-07-31T08:45:24;18.90;99.90
52731;DHT22;38624;53.242;6.974;2023-07-31T08:47:51;19.10;99.90
52731;DHT22;38624;53.242;6.974;2023-07-31T08:50:18;19.10;99.90
52731;DHT22;38624;53.242;6.974;2023-07-31T08:52:45;19.10;99.90
52731;DHT22;38624;53.242;6.974;2023-07-31T08:55:11;19.30;99.90
52731;DHT22;38624;53.242;6.974;2023-07-31T08:57:38;19.30;99.90
52731;DHT22;38624;53.242;6.974;2023-07-31T09:00:05;19.50;99.90
52731;DHT22;38624;53.242;6.974;2023-07-31T09:02:41;19.50;99.90
52731;DHT22;38624;53.242;6.974;2023-07-31T09:05:09;19.70;99.90
52731;DHT22;38624;53.242;6.974;2023-07-31T09:07:36;19.80;99.90
52731;DHT22;38624;53.242;6.974;2023-07-31T09:10:03;19.80;99.90
52731;DHT22;38624;53.242;6.974;2023-07-31T09:12:29;19.90;99.90
52731;DHT22;38624;53.242;6.974;2023-07-31T09:14:57;19.80;99.90
52731;DHT22;38624;53.242;6.974;2023-07-31T09:17:30;19.90;99.90
52731;DHT22;38624;53.242;6.974;2023-07-31T09:19:57;19.80;99.90
52731;DHT22;38624;53.242;6.974;2023-07-31T09:22:32;19.50;99.90
52731;DHT22;38624;53.242;6.974;2023-07-31T09:28:00;19.60;99.90
52731;DHT22;38624;53.242;6.974;2023-07-31T09:30:26;19.70;99.90
52731;DHT22;38624;53.242;6.974;2023-07-31T09:33:02;19.80;99.90
52731;DHT22;38624;53.242;6.974;2023-07-31T09:38:00;20.00;99.90
52731;DHT22;38624;53.242;6.974;2023-07-31T09:40:30;20.10;99.90
52731;DHT22;38624;53.242;6.974;2023-07-31T09:43:04;20.00;99.90
52731;DHT22;38624;53.242;6.974;2023-07-31T09:45:35;20.10;99.90
52731;DHT22;38624;53.242;6.974;2023-07-31T09:48:02;20.10;99.90
52731;DHT22;38624;53.242;6.974;2023-07-31T09:50:29;20.00;99.90
52731;DHT22;38624;53.242;6.974;2023-07-31T09:52:55;20.10;99.90
52731;DHT22;38624;53.242;6.974;2023-07-31T09:55:21;20.00;99.90
52731;DHT22;38624;53.242;6.974;2023-07-31T09:57:50;19.70;99.90
52731;DHT22;38624;53.242;6.974;2023-07-31T10:00:17;19.50;99.90
52731;DHT22;38624;53.242;6.974;2023-07-31T10:02:46;19.70;99.90
52731;DHT22;38624;53.242;6.974;2023-07-31T10:05:14;19.80;99.90
52731;DHT22;38624;53.242;6.974;2023-07-31T10:07:55;19.70;99.90
52731;DHT22;38624;53.242;6.974;2023-07-31T10:10:22;19.80;99.90
52731;DHT22;38624;53.242;6.974;2023-07-31T10:12:48;19.90;99.90
52731;DHT22;38624;53.242;6.974;2023-07-31T10:15:15;20.00;99.90
52731;DHT22;38624;53.242;6.974;2023-07-31T10:17:40;20.10;99.90
52731;DHT22;38624;53.242;6.974;2023-07-31T10:20:07;19.80;99.90
52731;DHT22;38624;53.242;6.974;2023-07-31T10:22:33;19.70;99.90
52731;DHT22;38624;53.242;6.974;2023-07-31T10:25:00;19.50;99.90
52731;DHT22;38624;53.242;6.974;2023-07-31T10:27:26;19.60;99.90
52731;DHT22;38624;53.242;6.974;2023-07-31T10:29:54;19.60;99.90
52731;DHT22;38624;53.242;6.974;2023-07-31T10:32:21;19.70;99.90
52731;DHT22;38624;53.242;6.974;2023-07-31T10:34:47;19.60;99.90
52731;DHT22;38624;53.242;6.974;2023-07-31T10:37:20;19.80;99.90
52731;DHT22;38624;53.242;6.974;2023-07-31T10:39:56;19.60;99.90
52731;DHT22;38624;53.242;6.974;2023-07-31T10:42:28;19.40;99.90
52731;DHT22;38624;53.242;6.974;2023-07-31T10:45:08;19.20;99.90
52731;DHT22;38624;53.242;6.974;2023-07-31T10:47:42;19.10;99.90
52731;DHT22;38624;53.242;6.974;2023-07-31T10:50:20;19.00;99.90
52731;DHT22;38624;53.242;6.974;2023-07-31T10:52:52;18.90;99.90
52731;DHT22;38624;53.242;6.974;2023-07-31T10:55:31;18.90;99.90
52731;DHT22;38624;53.242;6.974;2023-07-31T10:58:05;18.60;99.90
52731;DHT22;38624;53.242;6.974;2023-07-31T11:00:32;18.60;99.90
52731;DHT22;38624;53.242;6.974;2023-07-31T11:05:49;18.90;99.90
52731;DHT22;38624;53.242;6.974;2023-07-31T11:08:24;18.90;99.90
52731;DHT22;38624;53.242;6.974;2023-07-31T11:11:13;18.70;99.90
52731;DHT22;38624;53.242;6.974;2023-07-31T11:13:49;18.70;99.90
52731;DHT22;38624;53.242;6.974;2023-07-31T11:16:15;18.60;99.90
52731;DHT22;38624;53.242;6.974;2023-07-31T11:18:43;18.70;99.90
52731;DHT22;38624;53.242;6.974;2023-07-31T11:21:16;18.80;99.90
52731;DHT22;38624;53.242;6.974;2023-07-31T11:23:46;18.80;99.90
52731;DHT22;38624;53.242;6.974;2023-07-31T11:26:12;18.90;99.90
52731;DHT22;38624;53.242;6.974;2023-07-31T11:28:37;18.90;99.90
52731;DHT22;38624;53.242;6.974;2023-07-31T11:31:04;18.90;99.90
52731;DHT22;38624;53.242;6.974;2023-07-31T11:33:30;19.00;99.90
52731;DHT22;38624;53.242;6.974;2023-07-31T11:35:56;19.10;99.90
52731;DHT22;38624;53.242;6.974;2023-07-31T11:38:33;19.20;99.90
52731;DHT22;38624;53.242;6.974;2023-07-31T11:41:00;19.20;99.90
52731;DHT22;38624;53.242;6.974;2023-07-31T11:43:28;18.90;99.90
52731;DHT22;38624;53.242;6.974;2023-07-31T11:45:55;18.40;99.90
52731;DHT22;38624;53.242;6.974;2023-07-31T11:48:32;18.20;99.90
52731;DHT22;38624;53.242;6.974;2023-07-31T11:51:02;18.10;99.90
52731;DHT22;38624;53.242;6.974;2023-07-31T11:53:32;18.10;99.90
52731;DHT22;38624;53.242;6.974;2023-07-31T11:55:59;18.20;99.90
52731;DHT22;38624;53.242;6.974;2023-07-31T11:58:26;18.30;99.90
52731;DHT22;38624;53.242;6.974;2023-07-31T12:00:52;18.40;99.90
52731;DHT22;38624;53.242;6.974;2023-07-31T12:03:18;18.40;99.90
52731;DHT22;38624;53.242;6.974;2023-07-31T12:05:44;18.60;99.90
52731;DHT22;38624;53.242;6.974;2023-07-31T12:08:12;18.50;99.90
52731;DHT22;38624;53.242;6.974;2023-07-31T12:10:38;18.40;99.90
52731;DHT22;38624;53.242;6.974;2023-07-31T12:13:16;18.40;99.90
52731;DHT22;38624;53.242;6.974;2023-07-31T12:15:45;18.40;99.90
52731;DHT22;38624;53.242;6.974;2023-07-31T12:18:16;18.30;99.90
52731;DHT22;38624;53.242;6.974;2023-07-31T12:21:04;18.30;99.90
52731;DHT22;38624;53.242;6.974;2023-07-31T12:23:32;18.30;99.90
52731;DHT22;38624;53.242;6.974;2023-07-31T12:28:46;18.70;99.90
52731;DHT22;38624;53.242;6.974;2023-07-31T12:31:16;18.80;99.90
52731;DHT22;38624;53.242;6.974;2023-07-31T12:33:46;18.70;99.90
52731;DHT22;38624;53.242;6.974;2023-07-31T12:36:14;18.80;99.90
52731;DHT22;38624;53.242;6.974;2023-07-31T12:38:41;18.90;99.90
52731;DHT22;38624;53.242;6.974;2023-07-31T12:41:07;18.90;99.90
52731;DHT22;38624;53.242;6.974;2023-07-31T12:43:34;18.80;99.90
52731;DHT22;38624;53.242;6.974;2023-07-31T12:46:00;18.90;99.90
52731;DHT22;38624;53.242;6.974;2023-07-31T12:48:25;18.90;99.90
52731;DHT22;38624;53.242;6.974;2023-07-31T12:50:51;19.00;99.90
52731;DHT22;38624;53.242;6.974;2023-07-31T12:53:17;19.00;99.90
52731;DHT22;38624;53.242;6.974;2023-07-31T12:55:43;19.00;99.90
52731;DHT22;38624;53.242;6.974;2023-07-31T12:58:09;18.80;99.90
52731;DHT22;38624;53.242;6.974;2023-07-31T13:00:34;18.90;99.90
52731;DHT22;38624;53.242;6.974;2023-07-31T13:03:01;19.00;99.90
52731;DHT22;38624;53.242;6.974;2023-07-31T13:05:27;19.20;99.90
52731;DHT22;38624;53.242;6.974;2023-07-31T13:07:53;19.30;99.90
52731;DHT22;38624;53.242;6.974;2023-07-31T13:10:20;19.30;99.90
52731;DHT22;38624;53.242;6.974;2023-07-31T13:12:45;19.50;99.90
52731;DHT22;38624;53.242;6.974;2023-07-31T13:15:12;19.50;99.90
52731;DHT22;38624;53.242;6.974;2023-07-31T13:17:38;19.40;99.90
52731;DHT22;38624;53.242;6.974;2023-07-31T13:20:04;19.20;99.90
52731;DHT22;38624;53.242;6.974;2023-07-31T13:22:30;19.20;99.90
52731;DHT22;38624;53.242;6.974;2023-07-31T13:24:56;19.10;99.90
52731;DHT22;38624;53.242;6.974;2023-07-31T13:27:22;19.10;99.90
52731;DHT22;38624;53.242;6.974;2023-07-31T13:29:48;19.10;99.90
52731;DHT22;38624;53.242;6.974;2023-07-31T13:32:15;19.10;99.90
52731;DHT22;38624;53.242;6.974;2023-07-31T13:34:41;18.90;99.90
52731;DHT22;38624;53.242;6.974;2023-07-31T13:37:06;18.80;99.90
52731;DHT22;38624;53.242;6.974;2023-07-31T13:39:33;18.70;99.90
52731;DHT22;38624;53.242;6.974;2023-07-31T13:41:59;18.60;99.90
52731;DHT22;38624;53.242;6.974;2023-07-31T13:44:25;18.60;99.90
52731;DHT22;38624;53.242;6.974;2023-07-31T13:46:51;18.70;99.90
52731;DHT22;38624;53.242;6.974;2023-07-31T13:49:17;18.80;99.90
52731;DHT22;38624;53.242;6.974;2023-07-31T13:51:42;19.00;99.90
52731;DHT22;38624;53.242;6.974;2023-07-31T13:54:08;19.30;99.90
52731;DHT22;38624;53.242;6.974;2023-07-31T13:56:34;19.50;99.90
52731;DHT22;38624;53.242;6.974;2023-07-31T13:59:00;19.70;99.90
52731;DHT22;38624;53.242;6.974;2023-07-31T14:01:27;19.90;99.90
52731;DHT22;38624;53.242;6.974;2023-07-31T14:03:52;20.10;99.90
52731;DHT22;38624;53.242;6.974;2023-07-31T14:06:19;20.30;99.90
52731;DHT22;38624;53.242;6.974;2023-07-31T14:08:44;20.60;99.90
52731;DHT22;38624;53.242;6.974;2023-07-31T14:11:10;20.90;99.90
52731;DHT22;38624;53.242;6.974;2023-07-31T14:13:36;21.10;99.90
52731;DHT22;38624;53.242;6.974;2023-07-31T14:16:01;21.00;99.90
52731;DHT22;38624;53.242;6.974;2023-07-31T14:18:27;21.00;99.90
52731;DHT22;38624;53.242;6.974;2023-07-31T14:20:53;21.00;99.90
52731;DHT22;38624;53.242;6.974;2023-07-31T14:23:18;20.80;99.90
52731;DHT22;38624;53.242;6.974;2023-07-31T14:25:46;20.70;99.90
52731;DHT22;38624;53.242;6.974;2023-07-31T14:28:11;20.60;99.90
52731;DHT22;38624;53.242;6.974;2023-07-31T14:30:37;20.30;99.90
52731;DHT22;38624;53.242;6.974;2023-07-31T14:33:03;20.30;99.90
52731;DHT22;38624;53.242;6.974;2023-07-31T14:35:29;20.20;99.90
52731;DHT22;38624;53.242;6.974;2023-07-31T14:37:54;20.40;99.90
52731;DHT22;38624;53.242;6.974;2023-07-31T14:40:20;20.40;99.90
52731;DHT22;38624;53.242;6.974;2023-07-31T14:42:46;20.50;99.90
52731;DHT22;38624;53.242;6.974;2023-07-31T14:45:12;20.40;99.90
52731;DHT22;38624;53.242;6.974;2023-07-31T14:47:37;20.50;99.90
52731;DHT22;38624;53.242;6.974;2023-07-31T14:50:04;20.30;99.90
52731;DHT22;38624;53.242;6.974;2023-07-31T14:52:30;20.20;99.90
52731;DHT22;38624;53.242;6.974;2023-07-31T14:54:55;20.20;99.90
52731;DHT22;38624;53.242;6.974;2023-07-31T14:57:21;20.20;99.90
52731;DHT22;38624;53.242;6.974;2023-07-31T14:59:47;20.10;99.90
52731;DHT22;38624;53.242;6.974;2023-07-31T15:02:13;20.20;99.90
52731;DHT22;38624;53.242;6.974;2023-07-31T15:04:39;20.20;99.90
52731;DHT22;38624;53.242;6.974;2023-07-31T15:07:05;20.10;99.90
52731;DHT22;38624;53.242;6.974;2023-07-31T15:09:30;20.10;99.90
52731;DHT22;38624;53.242;6.974;2023-07-31T15:11:57;20.10;99.90
52731;DHT22;38624;53.242;6.974;2023-07-31T15:14:23;20.10;99.90
52731;DHT22;38624;53.242;6.974;2023-07-31T15:16:49;20.00;99.90
52731;DHT22;38624;53.242;6.974;2023-07-31T15:19:15;20.10;99.90
52731;DHT22;38624;53.242;6.974;2023-07-31T15:21:41;20.00;99.90
52731;DHT22;38624;53.242;6.974;2023-07-31T15:24:07;20.00;99.90
52731;DHT22;38624;53.242;6.974;2023-07-31T15:26:33;20.00;99.90
52731;DHT22;38624;53.242;6.974;2023-07-31T15:29:06;20.10;99.90
52731;DHT22;38624;53.242;6.974;2023-07-31T15:31:35;20.00;99.90
52731;DHT22;38624;53.242;6.974;2023-07-31T15:34:01;20.20;99.90
52731;DHT22;38624;53.242;6.974;2023-07-31T15:36:27;20.00;99.90
52731;DHT22;38624;53.242;6.974;2023-07-31T15:38:52;20.00;99.90
52731;DHT22;38624;53.242;6.974;2023-07-31T15:41:18;19.80;99.90
52731;DHT22;38624;53.242;6.974;2023-07-31T15:43:44;19.90;99.90